Time;durP1;ratioP1;P1;durP2;ratioP2;P2;SDS_P1;SDS_P2;PMS_P1;PMS_P2;Temp;Humidity;BMP_temperature;BMP_pressure;BME280_temperature;BME280_humidity;BME280_pressure;Samples;Min_cycle;Max_cycle;Signal;HPM_P1;HPM_P2
2022/05/12 00:02:04;;;;;;;17.73;15.05;;;;;;;15.88;nan;99915.97;4938360;29;20110;-81
2022/05/12 00:04:35;;;;;;;18.67;15.45;;;;;;;15.85;nan;99886.84;4943308;29;20102;-80
2022/05/12 00:07:03;;;;;;;19.13;15.27;;;;;;;15.91;nan;99887.38;4961105;28;20091;-80
2022/05/12 00:09:30;;;;;;;15.70;13.95;;;;;;;15.79;nan;99888.03;4930204;29;20091;-81
2022/05/12 00:11:57;;;;;;;17.02;13.77;;;;;;;15.64;nan;99881.75;4928993;29;20125;-80
2022/05/12 00:14:24;;;;;;;13.40;12.00;;;;;;;15.56;nan;99883.06;4946529;29;20261;-82
2022/05/12 00:16:51;;;;;;;16.95;14.85;;;;;;;15.56;nan;99883.94;4948568;29;20110;-81
2022/05/12 00:19:18;;;;;;;16.58;14.68;;;;;;;15.53;nan;99886.75;4942295;29;20095;-80
2022/05/12 00:21:45;;;;;;;16.25;14.57;;;;;;;15.55;nan;99892.84;4932452;29;20110;-80
2022/05/12 00:24:16;;;;;;;15.00;13.40;;;;;;;15.47;nan;99906.59;5012935;23;20177;-79
2022/05/12 00:26:43;;;;;;;15.40;13.80;;;;;;;15.43;nan;99909.47;4963870;28;22053;-79
2022/05/12 00:29:10;;;;;;;17.60;14.68;;;;;;;15.44;nan;99905.88;4976026;28;20049;-79
2022/05/12 00:31:39;;;;;;;15.30;13.05;;;;;;;15.36;nan;99895.63;4958016;28;20075;-79
2022/05/12 00:34:06;;;;;;;14.02;12.27;;;;;;;15.34;nan;99894.84;4973797;28;20030;-79
2022/05/12 00:36:34;;;;;;;14.65;12.43;;;;;;;15.29;nan;99886.22;4957021;28;20057;-79
2022/05/12 00:39:02;;;;;;;17.83;14.77;;;;;;;15.32;nan;99891.41;4973099;28;20038;-79
2022/05/12 00:41:29;;;;;;;15.20;13.60;;;;;;;15.27;nan;99893.44;4960699;28;20042;-79
2022/05/12 00:44:02;;;;;;;14.23;12.73;;;;;;;15.22;nan;99895.50;4973693;28;20064;-79
2022/05/12 00:46:31;;;;;;;19.83;15.95;;;;;;;15.31;nan;99908.31;4939539;28;20051;-79
2022/05/12 00:49:09;;;;;;;15.88;14.27;;;;;;;15.23;nan;99901.69;4960797;28;20061;-79
2022/05/12 00:51:52;;;;;;;17.20;13.88;;;;;;;15.21;nan;99902.59;5002264;28;20039;-79
2022/05/12 00:54:30;;;;;;;14.73;13.13;;;;;;;15.21;nan;99907.03;5007809;28;20073;-79
2022/05/12 00:56:59;;;;;;;14.32;12.82;;;;;;;15.20;nan;99902.66;4965438;28;20043;-79
2022/05/12 00:59:31;;;;;;;17.80;15.10;;;;;;;15.24;nan;99914.03;4969299;28;20411;-79
2022/05/12 01:02:00;;;;;;;19.20;16.70;;;;;;;15.33;nan;99913.56;4954253;28;20038;-79
2022/05/12 01:04:30;;;;;;;20.30;16.20;;;;;;;15.30;nan;99887.09;4984590;28;20045;-79
2022/05/12 01:06:56;;;;;;;19.67;17.08;;;;;;;15.34;nan;99888.66;4957734;28;20038;-79
2022/05/12 01:09:25;;;;;;;19.38;16.33;;;;;;;15.39;nan;99892.81;4953212;28;20046;-80
2022/05/12 01:11:52;;;;;;;20.45;16.50;;;;;;;15.42;nan;99883.78;4966329;28;20043;-80
2022/05/12 01:14:20;;;;;;;17.55;14.98;;;;;;;15.32;nan;99890.56;4968914;28;20030;-81
2022/05/12 01:16:59;;;;;;;20.48;16.85;;;;;;;15.31;nan;99912.78;4976014;28;20093;-80
2022/05/12 01:19:29;;;;;;;20.30;16.90;;;;;;;15.32;nan;99927.81;4986053;28;20045;-79
2022/05/12 01:21:57;;;;;;;24.33;19.02;;;;;;;15.40;nan;99941.59;4968198;28;20030;-80
2022/05/12 01:24:30;;;;;;;25.63;20.35;;;;;;;15.47;nan;99969.59;4962808;28;20475;-81
2022/05/12 01:26:58;;;;;;;21.33;18.75;;;;;;;15.42;nan;99974.28;4998034;28;20439;-80
2022/05/12 01:29:25;;;;;;;21.63;17.75;;;;;;;15.42;nan;99979.63;4983968;28;20042;-81
2022/05/12 01:31:52;;;;;;;24.10;19.05;;;;;;;15.45;nan;100000.75;4959488;28;20100;-83
2022/05/12 01:34:21;;;;;;;24.70;20.17;;;;;;;15.42;nan;100027.53;4955853;28;20034;-82
2022/05/12 01:36:48;;;;;;;26.92;20.67;;;;;;;15.55;nan;100041.06;4960109;28;20041;-83
2022/05/12 01:39:15;;;;;;;24.00;20.58;;;;;;;15.52;nan;100046.56;4969954;28;20038;-81
2022/05/12 01:41:42;;;;;;;25.27;19.45;;;;;;;15.58;nan;100052.44;4984993;28;20045;-80
2022/05/12 01:44:10;;;;;;;25.35;20.77;;;;;;;15.54;nan;100040.22;4983339;28;20037;-80
2022/05/12 01:46:38;;;;;;;22.08;18.83;;;;;;;15.46;nan;100037.94;4953303;28;20038;-80
2022/05/12 01:49:05;;;;;;;24.88;19.30;;;;;;;15.47;nan;100029.03;4974643;28;20069;-80
2022/05/12 01:51:35;;;;;;;20.63;17.35;;;;;;;15.42;nan;99996.44;4970188;28;20663;-80
2022/05/12 01:54:02;;;;;;;17.52;15.63;;;;;;;15.34;nan;100001.31;4983556;28;20400;-80
2022/05/12 01:56:29;;;;;;;19.48;16.45;;;;;;;15.25;nan;99998.25;5000280;28;20035;-80
2022/05/12 01:58:56;;;;;;;18.25;14.88;;;;;;;15.21;nan;99993.06;4984169;28;20042;-80
2022/05/12 02:01:23;;;;;;;17.92;14.23;;;;;;;15.15;nan;100004.03;4977353;28;20065;-81
2022/05/12 02:03:50;;;;;;;17.98;13.55;;;;;;;15.05;nan;99999.22;4979341;28;20391;-80
2022/05/12 02:06:17;;;;;;;16.27;12.90;;;;;;;14.92;nan;100002.50;4970323;28;20338;-81
2022/05/12 02:08:44;;;;;;;15.68;12.23;;;;;;;14.93;nan;100011.34;4972158;28;20031;-80
2022/05/12 02:11:10;;;;;;;15.68;12.43;;;;;;;14.85;nan;100014.34;4978987;28;20544;-79
2022/05/12 02:13:37;;;;;;;16.35;12.98;;;;;;;14.85;nan;100005.53;4967132;28;20034;-80
2022/05/12 02:16:04;;;;;;;17.85;13.10;;;;;;;14.78;nan;100006.75;4959976;28;20039;-80
2022/05/12 02:18:32;;;;;;;17.42;12.95;;;;;;;14.78;nan;99996.13;4960372;28;20051;-80
2022/05/12 02:20:58;;;;;;;18.80;13.40;;;;;;;14.86;nan;99988.63;4976728;28;20526;-80
2022/05/12 02:23:25;;;;;;;14.60;11.80;;;;;;;14.70;nan;99969.88;4954517;28;20054;-80
2022/05/12 02:25:52;;;;;;;14.95;11.70;;;;;;;14.61;nan;99979.16;4973162;28;20043;-81
2022/05/12 02:28:19;;;;;;;16.10;11.75;;;;;;;14.60;nan;99974.78;4978573;28;20419;-80
2022/05/12 02:30:46;;;;;;;14.75;12.10;;;;;;;14.56;nan;99957.28;4958799;28;20038;-80
2022/05/12 02:33:13;;;;;;;13.07;10.60;;;;;;;14.51;nan;99953.97;4977188;28;20039;-80
2022/05/12 02:35:40;;;;;;;12.80;10.48;;;;;;;14.45;nan;99954.25;4979801;28;20043;-80
2022/05/12 02:38:08;;;;;;;12.93;10.77;;;;;;;14.49;nan;99952.34;4986824;28;20043;-80
2022/05/12 02:40:35;;;;;;;16.63;11.40;;;;;;;14.49;nan;99962.97;4990100;28;20047;-80
2022/05/12 02:43:02;;;;;;;13.73;10.48;;;;;;;14.46;nan;99971.06;4997300;28;20035;-80
2022/05/12 02:45:29;;;;;;;12.00;10.20;;;;;;;14.42;nan;99967.66;5003289;28;20043;-80
2022/05/12 02:47:56;;;;;;;11.50;10.20;;;;;;;14.45;nan;99999.44;4988121;28;20046;-80
2022/05/12 02:50:23;;;;;;;11.95;9.70;;;;;;;14.39;nan;100002.38;4972456;28;20061;-80
2022/05/12 02:52:50;;;;;;;14.38;9.93;;;;;;;14.36;nan;100015.78;4959993;28;20038;-80
2022/05/12 02:55:17;;;;;;;11.40;8.93;;;;;;;14.34;nan;100017.66;4954172;28;20045;-81
2022/05/12 02:57:44;;;;;;;12.90;8.75;;;;;;;14.36;nan;100034.38;4968981;28;20518;-79
2022/05/12 03:00:16;;;;;;;10.30;8.55;;;;;;;14.42;nan;100041.22;5001453;28;20049;-80
2022/05/12 03:02:45;;;;;;;10.75;8.52;;;;;;;14.40;nan;100059.91;4967451;28;20050;-80
2022/05/12 03:05:12;;;;;;;13.68;9.32;;;;;;;14.37;nan;100036.97;4986285;28;20038;-80
2022/05/12 03:07:40;;;;;;;10.23;8.68;;;;;;;14.37;nan;100041.41;4975202;28;20042;-80
2022/05/12 03:10:08;;;;;;;11.90;8.88;;;;;;;14.28;nan;100032.06;4975218;28;20039;-79
2022/05/12 03:12:36;;;;;;;10.60;8.07;;;;;;;14.22;nan;100013.78;4957533;28;20050;-80
2022/05/12 03:15:06;;;;;;;10.65;7.75;;;;;;;14.18;nan;99984.75;4991307;28;20037;-79
2022/05/12 03:17:34;;;;;;;11.50;8.75;;;;;;;14.15;nan;99995.53;4983664;28;20051;-80
2022/05/12 03:20:02;;;;;;;12.52;9.32;;;;;;;14.11;nan;100047.91;4969084;28;20534;-81
2022/05/12 03:22:30;;;;;;;15.07;9.13;;;;;;;14.17;nan;100076.00;4979561;28;21154;-80
2022/05/12 03:24:57;;;;;;;12.15;8.65;;;;;;;14.15;nan;100076.09;4976801;28;20043;-81
2022/05/12 03:27:24;;;;;;;12.00;9.23;;;;;;;14.00;nan;100074.97;4981554;28;20082;-80
2022/05/12 03:29:51;;;;;;;16.65;9.07;;;;;;;14.03;nan;100072.16;4973226;28;20074;-81
2022/05/12 03:32:18;;;;;;;10.55;8.05;;;;;;;14.00;nan;100074.09;4980695;28;20078;-82
2022/05/12 03:34:45;;;;;;;11.32;8.38;;;;;;;14.03;nan;100096.06;4997528;28;20058;-80
2022/05/12 03:37:12;;;;;;;9.80;7.88;;;;;;;13.96;nan;100081.34;4995853;28;20082;-80
2022/05/12 03:39:43;;;;;;;12.55;8.07;;;;;;;13.95;nan;100076.94;4990941;28;20077;-82
2022/05/12 03:42:12;;;;;;;8.85;7.03;;;;;;;13.94;nan;100061.06;4993541;28;20058;-82
2022/05/12 03:44:53;;;;;;;10.95;7.47;;;;;;;13.83;nan;100044.75;4954440;28;20043;-81
2022/05/12 03:47:34;;;;;;;9.20;7.10;;;;;;;13.79;nan;100078.56;4972852;28;20092;-80
2022/05/12 03:50:11;;;;;;;9.15;7.05;;;;;;;13.75;nan;100080.47;4973621;28;20049;-81
2022/05/12 03:52:44;;;;;;;11.65;8.82;;;;;;;13.78;nan;100087.44;4969484;28;20042;-80
2022/05/12 03:55:11;;;;;;;12.40;8.65;;;;;;;13.79;nan;100090.03;4956356;28;20046;-81
2022/05/12 03:57:40;;;;;;;9.65;8.13;;;;;;;13.75;nan;100083.13;4957245;28;20045;-81
2022/05/12 04:00:08;;;;;;;14.23;8.52;;;;;;;13.83;nan;100090.75;4998110;28;20039;-82
2022/05/12 04:02:35;;;;;;;12.25;7.82;;;;;;;13.79;nan;100084.72;4967084;28;20092;-81
2022/05/12 04:05:03;;;;;;;10.18;8.20;;;;;;;13.83;nan;100090.75;4974433;28;20416;-80
2022/05/12 04:07:29;;;;;;;11.20;7.47;;;;;;;13.85;nan;100103.97;4972050;28;20047;-80
2022/05/12 04:09:59;;;;;;;13.35;7.90;;;;;;;13.86;nan;100109.22;4974004;28;20049;-80
2022/05/12 04:12:27;;;;;;;10.95;7.63;;;;;;;13.85;nan;100115.44;4971432;28;20047;-80
2022/05/12 04:14:54;;;;;;;8.45;7.20;;;;;;;13.81;nan;100105.91;4958295;28;20045;-81
2022/05/12 04:17:20;;;;;;;11.82;7.40;;;;;;;13.82;nan;100115.59;4972457;28;20031;-82
2022/05/12 04:19:50;;;;;;;9.18;6.50;;;;;;;13.78;nan;100109.53;4966481;28;20038;-81
2022/05/12 04:22:17;;;;;;;9.85;7.18;;;;;;;13.85;nan;100120.75;4971087;28;20034;-81
2022/05/12 04:24:47;;;;;;;14.02;6.70;;;;;;;13.74;nan;100133.63;4973686;28;20038;-81
2022/05/12 04:27:14;;;;;;;11.57;7.60;;;;;;;13.70;nan;100132.03;4971798;28;20043;-81
2022/05/12 04:29:42;;;;;;;12.20;6.68;;;;;;;13.74;nan;100149.56;4973320;28;20042;-80
2022/05/12 04:32:10;;;;;;;10.20;6.78;;;;;;;13.63;nan;100142.06;4974918;28;20046;-81
2022/05/12 04:37:30;;;;;;;13.50;6.68;;;;;;;13.75;nan;100159.25;4970846;28;20039;-81
2022/05/12 04:40:12;;;;;;;10.73;5.80;;;;;;;13.73;nan;100171.72;4963594;28;20130;-81
2022/05/12 04:42:39;;;;;;;9.20;6.35;;;;;;;13.75;nan;100164.56;4947300;28;20043;-82
2022/05/12 04:45:08;;;;;;;8.43;5.78;;;;;;;13.61;nan;100172.22;4972917;28;20047;-82
2022/05/12 04:47:36;;;;;;;10.77;7.00;;;;;;;13.57;nan;100176.81;4979959;28;20053;-81
2022/05/12 04:50:04;;;;;;;7.72;5.65;;;;;;;13.46;nan;100185.19;4958063;28;20035;-82
2022/05/12 04:52:32;;;;;;;8.70;4.90;;;;;;;13.36;nan;100181.16;5004224;28;20046;-82
2022/05/12 04:54:59;;;;;;;8.98;5.35;;;;;;;13.41;nan;100187.16;4956413;28;20543;-81
2022/05/12 04:57:26;;;;;;;9.63;5.50;;;;;;;13.50;nan;100186.78;4971110;28;20053;-81
2022/05/12 04:59:55;;;;;;;7.65;5.25;;;;;;;13.60;nan;100179.31;4941031;28;20055;-81
2022/05/12 05:02:23;;;;;;;9.00;5.65;;;;;;;13.74;nan;100190.25;4968218;28;20037;-82
2022/05/12 05:04:50;;;;;;;7.63;5.47;;;;;;;13.78;nan;100213.06;4963519;28;20399;-81
2022/05/12 05:07:17;;;;;;;7.47;4.95;;;;;;;13.86;nan;100202.16;4973485;28;20047;-82
2022/05/12 05:09:44;;;;;;;11.48;5.18;;;;;;;13.82;nan;100205.88;4951049;28;20503;-80
2022/05/12 05:12:11;;;;;;;9.75;6.10;;;;;;;13.84;nan;100213.75;4979530;28;20053;-82
2022/05/12 05:14:38;;;;;;;11.35;5.30;;;;;;;13.88;nan;100226.00;4943598;29;20039;-82
2022/05/12 05:17:05;;;;;;;8.27;4.97;;;;;;;13.97;nan;100230.94;4967705;28;20039;-82
2022/05/12 05:19:33;;;;;;;6.97;4.72;;;;;;;13.89;nan;100241.00;4946424;28;20030;-83
2022/05/12 05:22:00;;;;;;;8.13;5.32;;;;;;;13.93;nan;100235.50;4968580;28;20488;-81
2022/05/12 05:24:27;;;;;;;9.50;4.78;;;;;;;14.11;nan;100248.94;4969863;28;20048;-82
2022/05/12 05:26:54;;;;;;;8.70;5.05;;;;;;;14.23;nan;100251.09;4986234;28;20112;-83
2022/05/12 05:29:21;;;;;;;5.30;4.10;;;;;;;14.36;nan;100257.59;4952787;28;20035;-81
2022/05/12 05:31:49;;;;;;;8.95;4.45;;;;;;;14.47;nan;100262.53;4928028;28;20039;-81
2022/05/12 05:34:16;;;;;;;8.63;4.10;;;;;;;14.60;nan;100267.22;4953223;28;20047;-81
2022/05/12 05:36:45;;;;;;;6.50;4.03;;;;;;;14.60;nan;100269.88;4968467;28;20395;-82
2022/05/12 05:39:38;;;;;;;11.45;4.57;;;;;;;14.60;nan;100279.66;4972697;28;20039;-82
2022/05/12 05:42:10;;;;;;;6.15;3.65;;;;;;;14.63;nan;100287.53;4975867;28;20050;-81
2022/05/12 05:44:38;;;;;;;7.80;4.57;;;;;;;14.61;nan;100300.00;4963352;28;20041;-82
2022/05/12 05:47:05;;;;;;;6.57;3.75;;;;;;;14.19;nan;100305.28;4955377;28;20065;-83
2022/05/12 05:49:33;;;;;;;6.75;3.40;;;;;;;14.15;nan;100316.97;4960267;28;20031;-81
2022/05/12 05:54:45;;;;;;;6.00;3.13;;;;;;;13.97;nan;100316.78;4982421;28;20046;-82
2022/05/12 05:57:13;;;;;;;4.82;3.42;;;;;;;14.14;nan;100331.19;4977166;28;20043;-84
2022/05/12 05:59:40;;;;;;;4.03;2.67;;;;;;;14.26;nan;100328.88;4990163;28;20380;-83
2022/05/12 06:02:07;;;;;;;5.88;3.00;;;;;;;14.38;nan;100343.47;4990999;28;20061;-83
2022/05/12 06:04:34;;;;;;;5.32;2.70;;;;;;;14.53;nan;100340.19;4951048;28;20416;-82
2022/05/12 06:07:01;;;;;;;5.00;2.65;;;;;;;14.57;nan;100348.91;4958623;28;20034;-81
2022/05/12 06:09:28;;;;;;;6.75;2.95;;;;;;;14.43;nan;100351.25;4973306;28;20051;-83
2022/05/12 06:11:55;;;;;;;3.38;2.63;;;;;;;14.29;nan;100359.75;4954297;28;20043;-82
2022/05/12 06:14:23;;;;;;;6.40;3.40;;;;;;;14.30;nan;100381.00;4989173;28;20041;-82
2022/05/12 06:16:50;;;;;;;4.25;2.38;;;;;;;14.35;nan;100380.78;4969778;28;20037;-81
2022/05/12 06:19:17;;;;;;;4.95;3.15;;;;;;;14.21;nan;100388.44;4973172;28;20046;-84
2022/05/12 06:21:44;;;;;;;4.13;2.60;;;;;;;14.28;nan;100401.41;4952638;28;20409;-81
2022/05/12 06:24:11;;;;;;;5.97;2.83;;;;;;;14.20;nan;100415.94;4960718;28;20045;-81
2022/05/12 06:26:38;;;;;;;4.22;2.65;;;;;;;14.20;nan;100418.59;5055820;23;20379;-81
2022/05/12 06:29:06;;;;;;;4.90;2.47;;;;;;;14.07;nan;100427.06;4975481;28;20049;-82
2022/05/12 06:31:34;;;;;;;6.47;3.00;;;;;;;13.97;nan;100438.09;4992439;28;20038;-82
2022/05/12 06:34:01;;;;;;;3.88;2.53;;;;;;;13.83;nan;100437.75;4960390;28;20065;-83
2022/05/12 06:36:29;;;;;;;4.85;2.60;;;;;;;13.78;nan;100464.44;4994858;28;20049;-82
2022/05/12 06:38:56;;;;;;;5.25;2.30;;;;;;;13.69;nan;100476.28;4995508;28;20046;-82
2022/05/12 06:41:26;;;;;;;3.95;2.40;;;;;;;13.70;nan;100475.34;4995364;28;20040;-82
2022/05/12 06:43:54;;;;;;;4.38;2.60;;;;;;;13.78;nan;100491.00;4988383;28;20049;-80
2022/05/12 06:46:21;;;;;;;3.80;1.80;;;;;;;13.98;nan;100498.25;4992393;28;20176;-81
2022/05/12 06:48:52;;;;;;;6.05;2.05;;;;;;;14.37;nan;100491.41;4965264;28;20060;-81
2022/05/12 06:51:19;;;;;;;3.75;2.22;;;;;;;14.78;nan;100518.19;5006994;28;20030;-81
2022/05/12 06:53:47;;;;;;;2.92;1.30;;;;;;;15.26;nan;100518.91;4991010;28;20399;-81
2022/05/12 06:56:16;;;;;;;2.75;1.60;;;;;;;15.23;nan;100517.25;4979616;28;20380;-81
2022/05/12 06:58:43;;;;;;;3.03;1.38;;;;;;;15.18;nan;100535.22;4993441;28;20048;-81
2022/05/12 07:01:10;;;;;;;1.77;1.20;;;;;;;15.13;nan;100534.53;4974336;28;20042;-80
2022/05/12 07:03:38;;;;;;;3.10;1.10;;;;;;;15.09;nan;100540.91;4991746;28;20046;-80
2022/05/12 07:06:06;;;;;;;3.22;1.02;;;;;;;15.13;nan;100548.72;4993290;28;20655;-80
2022/05/12 07:08:41;;;;;;;1.70;1.30;;;;;;;15.15;nan;100559.28;4967323;28;20049;-80
2022/05/12 07:11:12;;;;;;;1.58;0.90;;;;;;;15.46;nan;100566.84;4989645;28;20042;-81
2022/05/12 07:13:39;;;;;;;1.27;0.90;;;;;;;15.71;nan;100580.88;4956423;28;20038;-81
2022/05/12 07:16:07;;;;;;;2.03;0.80;;;;;;;15.61;nan;100589.34;4989211;28;20037;-79
2022/05/12 07:18:35;;;;;;;0.60;0.60;;;;;;;15.47;nan;100596.09;4983891;28;20037;-80
2022/05/12 07:26:48;;;;;;;1.27;0.85;;;;;;;14.82;nan;100636.84;4983458;28;20042;-81
2022/05/12 07:29:17;;;;;;;1.55;1.00;;;;;;;14.77;nan;100629.97;4974572;28;20044;-81
2022/05/12 07:31:45;;;;;;;0.75;0.70;;;;;;;15.31;nan;100634.06;4975643;28;20038;-81
2022/05/12 07:34:13;;;;;;;0.95;0.70;;;;;;;15.75;nan;100626.94;4991590;28;20042;-80
2022/05/12 07:36:43;;;;;;;0.70;0.70;;;;;;;16.07;nan;100641.53;4993297;28;20049;-78
2022/05/12 07:39:14;;;;;;;2.15;0.82;;;;;;;16.23;nan;100652.41;4983697;28;20042;-80
2022/05/12 07:41:41;;;;;;;1.42;0.60;;;;;;;16.18;nan;100663.25;4989453;28;20402;-81
2022/05/12 07:44:09;;;;;;;1.17;0.70;;;;;;;16.22;nan;100663.97;4989097;28;20040;-80
2022/05/12 07:46:37;;;;;;;2.67;1.08;;;;;;;16.63;nan;100667.47;4992061;28;20048;-81
2022/05/12 07:49:04;;;;;;;2.05;0.80;;;;;;;16.33;nan;100665.25;4982567;28;20085;-81
2022/05/12 07:51:31;;;;;;;1.05;0.80;;;;;;;16.09;nan;100671.66;4978000;28;20038;-81
2022/05/12 07:53:58;;;;;;;1.40;0.75;;;;;;;15.86;nan;100691.25;4974165;28;20042;-81
2022/05/12 07:56:27;;;;;;;1.65;0.82;;;;;;;15.60;nan;100694.09;4961565;28;20045;-81
2022/05/12 07:58:55;;;;;;;2.67;1.05;;;;;;;15.42;nan;100706.38;4986680;28;20027;-81
2022/05/12 08:01:23;;;;;;;1.38;1.00;;;;;;;15.48;nan;100700.81;4989502;28;20045;-81
2022/05/12 08:03:51;;;;;;;2.90;1.13;;;;;;;15.51;nan;100723.78;4974198;28;20034;-81
2022/05/12 08:06:18;;;;;;;4.10;1.30;;;;;;;15.18;nan;100730.34;4991993;28;20515;-81
2022/05/12 08:08:48;;;;;;;3.72;1.27;;;;;;;14.95;nan;100742.78;4973481;28;20096;-82
2022/05/12 08:11:15;;;;;;;1.45;1.35;;;;;;;15.53;nan;100737.88;4989764;28;20034;-82
2022/05/12 08:13:47;;;;;;;1.50;1.00;;;;;;;15.98;nan;100743.19;4965861;28;20038;-82
2022/05/12 08:16:19;;;;;;;2.00;1.20;;;;;;;16.38;nan;100738.81;4976449;28;20041;-80
2022/05/12 08:18:49;;;;;;;2.28;1.42;;;;;;;16.80;nan;100734.28;4975534;28;20418;-80
2022/05/12 08:21:19;;;;;;;3.22;1.00;;;;;;;17.13;nan;100742.56;4975464;28;20042;-80
2022/05/12 08:23:47;;;;;;;2.17;0.95;;;;;;;16.79;nan;100747.72;4971706;28;20038;-79
2022/05/12 08:26:14;;;;;;;2.33;1.30;;;;;;;16.55;nan;100760.28;4974740;28;20030;-80
2022/05/12 08:28:41;;;;;;;1.48;0.90;;;;;;;16.57;nan;100764.66;4989956;28;20381;-80
2022/05/12 08:31:08;;;;;;;1.40;1.15;;;;;;;16.66;nan;100770.50;4975006;28;20049;-79
2022/05/12 08:33:37;;;;;;;2.78;1.30;;;;;;;17.07;nan;100766.91;4973880;28;20046;-80
2022/05/12 08:36:05;;;;;;;2.33;1.33;;;;;;;17.44;nan;100765.19;4987553;28;20049;-81
2022/05/12 08:38:34;;;;;;;2.25;1.17;;;;;;;17.42;nan;100778.59;4992817;28;20076;-78
2022/05/12 08:41:04;;;;;;;2.78;1.27;;;;;;;16.63;nan;100781.28;4994714;28;20042;-79
2022/05/12 08:43:49;;;;;;;1.90;1.00;;;;;;;16.77;nan;100785.13;4987284;28;20403;-79
2022/05/12 08:46:19;;;;;;;1.73;1.00;;;;;;;16.57;nan;100798.44;4975552;28;20452;-79
2022/05/12 08:48:48;;;;;;;2.30;1.30;;;;;;;16.53;nan;100796.84;4989351;28;20041;-79
2022/05/12 08:51:19;;;;;;;1.65;1.10;;;;;;;17.22;nan;100797.34;4990992;28;20038;-80
2022/05/12 08:54:08;;;;;;;2.08;1.52;;;;;;;18.07;nan;100796.91;4985816;28;20039;-80
2022/05/12 08:56:35;;;;;;;2.05;0.90;;;;;;;18.64;nan;100789.56;4967825;28;20045;-79
2022/05/12 08:59:02;;;;;;;1.65;1.10;;;;;;;18.43;nan;100799.56;4995426;28;20045;-76
2022/05/12 09:01:41;;;;;;;1.52;1.00;;;;;;;18.05;nan;100814.84;4991647;28;20034;-80
2022/05/12 09:04:20;;;;;;;1.08;1.00;;;;;;;18.17;nan;100819.59;4955110;28;20038;-82
2022/05/12 09:07:09;;;;;;;1.15;0.88;;;;;;;18.33;nan;100814.31;4990906;28;20436;-81
2022/05/12 09:09:58;;;;;;;2.20;1.15;;;;;;;18.45;nan;100816.41;4984714;28;20575;-82
2022/05/12 09:12:47;;;;;;;1.92;1.10;;;;;;;18.36;nan;100812.38;4982481;28;20126;-82
2022/05/12 09:15:26;;;;;;;1.27;0.93;;;;;;;18.39;nan;100817.56;4991968;28;20110;-82
2022/05/12 09:18:00;;;;;;;2.40;0.98;;;;;;;18.30;nan;100828.72;4975959;28;20041;-81
2022/05/12 09:20:33;;;;;;;3.67;1.15;;;;;;;18.07;nan;100842.34;5007722;28;20094;-82
2022/05/12 09:23:01;;;;;;;1.40;1.02;;;;;;;18.10;nan;100847.56;4973656;28;20043;-81
2022/05/12 09:25:34;;;;;;;2.35;1.30;;;;;;;18.05;nan;100838.91;4965475;28;20508;-81
2022/05/12 09:28:15;;;;;;;1.02;0.90;;;;;;;18.18;nan;100848.94;4980859;28;20035;-83
2022/05/12 09:30:42;;;;;;;1.42;1.10;;;;;;;18.34;nan;100865.09;4981002;28;20049;-83
2022/05/12 09:33:09;;;;;;;1.65;1.00;;;;;;;18.63;nan;100852.06;4970186;28;20030;-84
2022/05/12 09:35:36;;;;;;;2.35;1.00;;;;;;;18.91;nan;100857.75;4972841;28;20064;-83
2022/05/12 09:38:20;;;;;;;1.55;1.10;;;;;;;18.69;nan;100862.50;4966010;28;20041;-83
2022/05/12 09:40:47;;;;;;;1.40;0.90;;;;;;;18.27;nan;100863.66;4957800;28;20043;-82
2022/05/12 09:43:32;;;;;;;2.13;1.00;;;;;;;18.19;nan;100868.50;4956246;28;20064;-81
2022/05/12 09:46:20;;;;;;;2.78;1.10;;;;;;;18.59;nan;100869.22;4973601;28;20037;-82
2022/05/12 09:48:48;;;;;;;3.05;1.00;;;;;;;18.97;nan;100876.19;4986496;28;20423;-80
2022/05/12 09:51:24;;;;;;;2.38;1.30;;;;;;;19.15;nan;100870.81;4971825;28;20045;-82
2022/05/12 09:54:32;;;;;;;2.70;1.40;;;;;;;18.56;nan;100873.75;4990827;28;20046;-80
2022/05/12 09:57:01;;;;;;;1.88;0.90;;;;;;;18.56;nan;100884.47;4983448;28;20042;-79
2022/05/12 09:59:30;;;;;;;2.80;1.20;;;;;;;18.54;nan;100883.69;4950331;28;20043;-81
2022/05/12 10:02:04;;;;;;;2.13;1.00;;;;;;;18.46;nan;100877.84;4970131;28;20044;-80
2022/05/12 10:10:04;;;;;;;2.05;1.20;;;;;;;18.34;nan;100880.28;4975047;28;20039;-81
2022/05/12 10:12:36;;;;;;;2.67;1.45;;;;;;;18.50;nan;100884.78;4973140;28;20080;-78
2022/05/12 10:15:16;;;;;;;2.80;1.00;;;;;;;18.88;nan;100879.34;4959826;28;20053;-79
2022/05/12 10:17:54;;;;;;;1.85;1.00;;;;;;;18.77;nan;100881.72;4968456;28;20498;-80
2022/05/12 10:20:24;;;;;;;1.83;0.98;;;;;;;19.37;nan;100887.47;4976311;28;20041;-80
2022/05/12 10:22:56;;;;;;;2.10;0.90;;;;;;;19.98;nan;100889.53;4965899;28;20031;-80
2022/05/12 10:25:47;;;;;;;2.80;1.20;;;;;;;19.89;nan;100869.44;4958451;28;20060;-78
2022/05/12 10:28:26;;;;;;;1.85;1.10;;;;;;;19.37;nan;100872.28;4953399;28;20066;-78
2022/05/12 10:31:25;;;;;;;3.92;1.40;;;;;;;19.31;nan;100869.91;4975105;28;20038;-79
2022/05/12 10:34:31;;;;;;;2.13;1.27;;;;;;;19.90;nan;100883.72;4963945;28;20046;-80
2022/05/12 10:37:07;;;;;;;2.85;1.10;;;;;;;19.29;nan;100879.84;4975268;28;20035;-79
2022/05/12 10:40:02;;;;;;;3.78;1.40;;;;;;;19.60;nan;100894.31;4986829;28;20042;-79
2022/05/12 10:42:40;;;;;;;1.65;1.00;;;;;;;19.49;nan;100889.50;4975803;28;20031;-79
2022/05/12 10:45:10;;;;;;;2.17;1.23;;;;;;;19.74;nan;100897.09;4996835;28;20049;-79
2022/05/12 10:48:10;;;;;;;3.60;1.30;;;;;;;19.68;nan;100884.06;4977056;28;20045;-79
2022/05/12 10:50:45;;;;;;;2.50;1.15;;;;;;;20.47;nan;100887.63;4988271;28;20035;-80
2022/05/12 10:53:42;;;;;;;2.75;1.50;;;;;;;20.55;nan;100892.56;4977988;28;20514;-79
2022/05/12 10:56:47;;;;;;;2.25;1.20;;;;;;;20.97;nan;100886.47;4978104;28;20034;-79
2022/05/12 10:59:22;;;;;;;1.88;1.30;;;;;;;21.22;nan;100891.22;4905511;28;20045;-78
2022/05/12 11:01:55;;;;;;;1.92;1.30;;;;;;;21.76;nan;100883.38;4980739;28;20745;-80
2022/05/12 11:04:41;;;;;;;3.80;1.63;;;;;;;21.84;nan;100890.97;4982068;28;20047;-78
2022/05/12 11:07:15;;;;;;;2.67;1.38;;;;;;;22.12;nan;100884.72;4975391;28;20035;-79
2022/05/12 11:09:53;;;;;;;1.30;1.20;;;;;;;22.05;nan;100889.59;4973799;28;20039;-80
2022/05/12 11:12:29;;;;;;;2.15;1.20;;;;;;;21.77;nan;100892.31;4957237;28;20053;-79
2022/05/12 11:15:10;;;;;;;1.15;1.00;;;;;;;21.35;nan;100896.72;4975282;28;20043;-80
2022/05/12 11:17:41;;;;;;;3.95;1.38;;;;;;;20.98;nan;100903.44;4973879;28;20043;-79
2022/05/12 11:20:28;;;;;;;4.43;1.42;;;;;;;20.57;nan;100920.16;4981967;28;20041;-79
2022/05/12 11:23:16;;;;;;;1.75;1.20;;;;;;;20.23;nan;100910.47;4995215;28;20045;-79
2022/05/12 11:25:53;;;;;;;2.72;1.30;;;;;;;20.00;nan;100919.78;4968841;28;20043;-78
2022/05/12 11:31:21;;;;;;;2.70;1.30;;;;;;;19.57;nan;100916.78;5006253;28;20042;-79
2022/05/12 11:33:51;;;;;;;3.03;1.55;;;;;;;20.22;nan;100917.66;4993384;28;20039;-79
2022/05/12 11:36:18;;;;;;;2.35;1.20;;;;;;;20.48;nan;100905.47;4961869;28;20043;-79
2022/05/12 11:38:51;;;;;;;3.22;1.52;;;;;;;20.29;nan;100914.63;4975488;28;20030;-79
2022/05/12 11:41:27;;;;;;;2.60;1.30;;;;;;;20.15;nan;100907.34;4980431;28;20045;-78
2022/05/12 11:44:26;;;;;;;2.88;1.40;;;;;;;19.74;nan;100913.19;4988185;28;20035;-79
2022/05/12 11:47:06;;;;;;;2.80;1.40;;;;;;;19.19;nan;100910.75;4976833;28;20042;-78
2022/05/12 11:49:45;;;;;;;2.17;1.67;;;;;;;19.46;nan;100897.72;4962408;28;20046;-78
2022/05/12 11:52:24;;;;;;;3.05;1.48;;;;;;;20.14;nan;100906.50;4969112;28;20493;-79
2022/05/12 11:54:55;;;;;;;4.50;1.45;;;;;;;20.56;nan;100896.09;4980506;28;20053;-81
2022/05/12 11:57:31;;;;;;;4.18;1.15;;;;;;;20.60;nan;100911.97;4978631;28;20094;-79
2022/05/12 12:00:00;;;;;;;1.95;1.23;;;;;;;19.86;nan;100909.00;4983046;28;20161;-80
2022/05/12 12:02:27;;;;;;;5.45;1.33;;;;;;;19.67;nan;100918.03;4972394;28;20068;-79
2022/05/12 12:04:56;;;;;;;2.35;1.50;;;;;;;19.73;nan;100924.88;4996703;28;20498;-80
2022/05/12 12:07:32;;;;;;;4.57;1.45;;;;;;;20.00;nan;100922.47;4978242;28;20037;-79
2022/05/12 12:10:23;;;;;;;1.60;1.50;;;;;;;19.79;nan;100921.84;4987842;28;20039;-80
2022/05/12 12:13:02;;;;;;;3.30;1.50;;;;;;;19.49;nan;100920.78;4985885;28;20042;-80
2022/05/12 12:15:30;;;;;;;3.83;1.38;;;;;;;19.35;nan;100922.41;4978546;28;20113;-80
2022/05/12 12:17:59;;;;;;;23.20;3.63;;;;;;;19.76;nan;100931.88;4994127;28;20034;-79